sensor_id;sensor_type;location;lat;lon;timestamp;P1;durP1;ratioP1;P2;durP2;ratioP2
68050;SDS011;54839;51.364;7.246;2023-02-12T00:01:37;66.50;;;40.70;;
68050;SDS011;54839;51.364;7.246;2023-02-12T00:04:02;66.83;;;40.63;;
68050;SDS011;54839;51.364;7.246;2023-02-12T00:06:28;68.20;;;40.07;;
68050;SDS011;54839;51.364;7.246;2023-02-12T00:08:54;70.63;;;43.03;;
68050;SDS011;54839;51.364;7.246;2023-02-12T00:11:22;59.10;;;38.40;;
68050;SDS011;54839;51.364;7.246;2023-02-12T00:13:49;69.60;;;42.03;;
68050;SDS011;54839;51.364;7.246;2023-02-12T00:16:16;69.67;;;40.67;;
68050;SDS011;54839;51.364;7.246;2023-02-12T00:18:44;63.03;;;39.30;;
68050;SDS011;54839;51.364;7.246;2023-02-12T00:21:10;62.10;;;39.50;;
68050;SDS011;54839;51.364;7.246;2023-02-12T00:23:38;58.80;;;39.23;;
68050;SDS011;54839;51.364;7.246;2023-02-12T00:26:12;62.50;;;39.73;;
68050;SDS011;54839;51.364;7.246;2023-02-12T00:28:39;63.53;;;39.53;;
68050;SDS011;54839;51.364;7.246;2023-02-12T00:31:05;65.90;;;41.80;;
68050;SDS011;54839;51.364;7.246;2023-02-12T00:33:31;69.47;;;40.40;;
68050;SDS011;54839;51.364;7.246;2023-02-12T00:35:56;65.80;;;42.23;;
68050;SDS011;54839;51.364;7.246;2023-02-12T00:38:22;65.80;;;38.97;;
68050;SDS011;54839;51.364;7.246;2023-02-12T00:40:48;60.73;;;39.07;;
68050;SDS011;54839;51.364;7.246;2023-02-12T00:43:13;60.20;;;39.17;;
68050;SDS011;54839;51.364;7.246;2023-02-12T00:45:39;67.50;;;39.57;;
68050;SDS011;54839;51.364;7.246;2023-02-12T00:48:04;67.70;;;40.43;;
68050;SDS011;54839;51.364;7.246;2023-02-12T00:50:30;67.20;;;40.47;;
68050;SDS011;54839;51.364;7.246;2023-02-12T00:52:56;63.93;;;41.33;;
68050;SDS011;54839;51.364;7.246;2023-02-12T00:55:21;62.57;;;39.47;;
68050;SDS011;54839;51.364;7.246;2023-02-12T00:57:46;66.10;;;41.43;;
68050;SDS011;54839;51.364;7.246;2023-02-12T01:00:13;65.60;;;40.07;;
68050;SDS011;54839;51.364;7.246;2023-02-12T01:02:39;60.33;;;38.90;;
68050;SDS011;54839;51.364;7.246;2023-02-12T01:05:04;58.70;;;38.13;;
68050;SDS011;54839;51.364;7.246;2023-02-12T01:07:30;62.63;;;39.10;;
68050;SDS011;54839;51.364;7.246;2023-02-12T01:09:56;67.37;;;39.57;;
68050;SDS011;54839;51.364;7.246;2023-02-12T01:12:21;65.30;;;39.70;;
68050;SDS011;54839;51.364;7.246;2023-02-12T01:14:47;59.53;;;39.37;;
68050;SDS011;54839;51.364;7.246;2023-02-12T01:17:12;71.07;;;42.47;;
68050;SDS011;54839;51.364;7.246;2023-02-12T01:19:38;71.80;;;42.77;;
68050;SDS011;54839;51.364;7.246;2023-02-12T01:22:03;66.40;;;41.27;;
68050;SDS011;54839;51.364;7.246;2023-02-12T01:24:29;64.47;;;39.73;;
68050;SDS011;54839;51.364;7.246;2023-02-12T01:26:54;65.87;;;42.07;;
68050;SDS011;54839;51.364;7.246;2023-02-12T01:29:20;61.07;;;37.93;;
68050;SDS011;54839;51.364;7.246;2023-02-12T01:31:46;65.10;;;41.90;;
68050;SDS011;54839;51.364;7.246;2023-02-12T01:34:11;66.37;;;38.70;;
68050;SDS011;54839;51.364;7.246;2023-02-12T01:36:37;69.40;;;40.17;;
68050;SDS011;54839;51.364;7.246;2023-02-12T01:39:04;60.50;;;39.17;;
68050;SDS011;54839;51.364;7.246;2023-02-12T01:41:32;67.53;;;39.87;;
68050;SDS011;54839;51.364;7.246;2023-02-12T01:44:13;64.77;;;39.60;;
68050;SDS011;54839;51.364;7.246;2023-02-12T01:47:12;64.07;;;39.93;;
68050;SDS011;54839;51.364;7.246;2023-02-12T01:49:40;61.20;;;38.17;;
68050;SDS011;54839;51.364;7.246;2023-02-12T01:52:15;64.50;;;39.43;;
68050;SDS011;54839;51.364;7.246;2023-02-12T01:54:53;64.70;;;39.80;;
68050;SDS011;54839;51.364;7.246;2023-02-12T01:57:22;73.27;;;42.17;;
68050;SDS011;54839;51.364;7.246;2023-02-12T01:59:51;63.87;;;38.87;;
68050;SDS011;54839;51.364;7.246;2023-02-12T02:02:19;64.57;;;37.60;;
68050;SDS011;54839;51.364;7.246;2023-02-12T02:04:46;63.50;;;40.07;;
68050;SDS011;54839;51.364;7.246;2023-02-12T02:07:13;65.67;;;40.03;;
68050;SDS011;54839;51.364;7.246;2023-02-12T02:09:39;65.37;;;39.23;;
68050;SDS011;54839;51.364;7.246;2023-02-12T02:12:06;62.70;;;37.03;;
68050;SDS011;54839;51.364;7.246;2023-02-12T02:14:51;65.43;;;37.97;;
68050;SDS011;54839;51.364;7.246;2023-02-12T02:17:38;67.00;;;41.50;;
68050;SDS011;54839;51.364;7.246;2023-02-12T02:20:32;62.13;;;40.13;;
68050;SDS011;54839;51.364;7.246;2023-02-12T02:29:04;62.70;;;40.70;;
68050;SDS011;54839;51.364;7.246;2023-02-12T02:31:53;64.87;;;40.03;;
68050;SDS011;54839;51.364;7.246;2023-02-12T02:34:46;61.97;;;40.37;;
68050;SDS011;54839;51.364;7.246;2023-02-12T02:39:59;58.97;;;39.17;;
68050;SDS011;54839;51.364;7.246;2023-02-12T02:45:27;62.83;;;37.20;;
68050;SDS011;54839;51.364;7.246;2023-02-12T02:48:11;60.20;;;39.07;;
68050;SDS011;54839;51.364;7.246;2023-02-12T02:50:43;56.43;;;36.47;;
68050;SDS011;54839;51.364;7.246;2023-02-12T02:53:14;64.53;;;39.97;;
68050;SDS011;54839;51.364;7.246;2023-02-12T02:55:49;62.83;;;38.47;;
68050;SDS011;54839;51.364;7.246;2023-02-12T02:58:19;55.87;;;35.87;;
68050;SDS011;54839;51.364;7.246;2023-02-12T03:00:53;59.17;;;36.60;;
68050;SDS011;54839;51.364;7.246;2023-02-12T03:03:27;58.40;;;37.20;;
68050;SDS011;54839;51.364;7.246;2023-02-12T03:06:12;62.50;;;36.80;;
68050;SDS011;54839;51.364;7.246;2023-02-12T03:08:48;64.13;;;35.50;;
68050;SDS011;54839;51.364;7.246;2023-02-12T03:11:18;50.80;;;33.03;;
68050;SDS011;54839;51.364;7.246;2023-02-12T03:14:02;51.30;;;32.37;;
68050;SDS011;54839;51.364;7.246;2023-02-12T03:17:04;56.97;;;35.97;;
68050;SDS011;54839;51.364;7.246;2023-02-12T03:19:38;54.03;;;34.00;;
68050;SDS011;54839;51.364;7.246;2023-02-12T03:22:21;61.00;;;36.03;;
68050;SDS011;54839;51.364;7.246;2023-02-12T03:24:56;50.87;;;32.47;;
68050;SDS011;54839;51.364;7.246;2023-02-12T03:27:30;52.67;;;34.07;;
68050;SDS011;54839;51.364;7.246;2023-02-12T03:29:56;50.80;;;33.60;;
68050;SDS011;54839;51.364;7.246;2023-02-12T03:39:52;47.87;;;32.20;;
68050;SDS011;54839;51.364;7.246;2023-02-12T03:42:33;51.33;;;31.73;;
68050;SDS011;54839;51.364;7.246;2023-02-12T03:45:10;58.93;;;35.40;;
68050;SDS011;54839;51.364;7.246;2023-02-12T03:47:57;51.60;;;32.50;;
68050;SDS011;54839;51.364;7.246;2023-02-12T03:50:37;47.03;;;32.20;;
68050;SDS011;54839;51.364;7.246;2023-02-12T03:53:10;49.93;;;32.70;;
68050;SDS011;54839;51.364;7.246;2023-02-12T03:55:37;49.77;;;34.73;;
68050;SDS011;54839;51.364;7.246;2023-02-12T03:58:07;53.80;;;34.10;;
68050;SDS011;54839;51.364;7.246;2023-02-12T04:00:36;47.93;;;31.93;;
68050;SDS011;54839;51.364;7.246;2023-02-12T04:03:03;49.43;;;32.20;;
68050;SDS011;54839;51.364;7.246;2023-02-12T04:05:30;52.77;;;34.00;;
68050;SDS011;54839;51.364;7.246;2023-02-12T04:07:56;45.73;;;30.63;;
68050;SDS011;54839;51.364;7.246;2023-02-12T04:10:27;48.23;;;34.20;;
68050;SDS011;54839;51.364;7.246;2023-02-12T04:13:31;52.87;;;34.00;;
68050;SDS011;54839;51.364;7.246;2023-02-12T04:16:24;51.60;;;32.80;;
68050;SDS011;54839;51.364;7.246;2023-02-12T04:18:57;53.63;;;33.77;;
68050;SDS011;54839;51.364;7.246;2023-02-12T04:21:39;52.23;;;31.70;;
68050;SDS011;54839;51.364;7.246;2023-02-12T04:24:24;51.17;;;35.40;;
68050;SDS011;54839;51.364;7.246;2023-02-12T04:27:02;58.20;;;33.90;;
68050;SDS011;54839;51.364;7.246;2023-02-12T04:29:38;50.93;;;34.90;;
68050;SDS011;54839;51.364;7.246;2023-02-12T04:32:19;54.43;;;34.63;;
68050;SDS011;54839;51.364;7.246;2023-02-12T04:35:11;45.43;;;33.87;;
68050;SDS011;54839;51.364;7.246;2023-02-12T04:37:43;60.27;;;36.07;;
68050;SDS011;54839;51.364;7.246;2023-02-12T04:40:14;61.67;;;37.53;;
68050;SDS011;54839;51.364;7.246;2023-02-12T04:42:43;56.00;;;35.03;;
68050;SDS011;54839;51.364;7.246;2023-02-12T04:45:15;57.60;;;34.03;;
68050;SDS011;54839;51.364;7.246;2023-02-12T04:47:45;55.73;;;35.00;;
68050;SDS011;54839;51.364;7.246;2023-02-12T04:50:11;58.87;;;37.27;;
68050;SDS011;54839;51.364;7.246;2023-02-12T04:52:37;59.40;;;37.33;;
68050;SDS011;54839;51.364;7.246;2023-02-12T04:55:02;57.37;;;36.27;;
68050;SDS011;54839;51.364;7.246;2023-02-12T04:57:28;54.97;;;37.20;;
68050;SDS011;54839;51.364;7.246;2023-02-12T04:59:53;55.00;;;35.20;;
68050;SDS011;54839;51.364;7.246;2023-02-12T05:02:19;61.10;;;36.50;;
68050;SDS011;54839;51.364;7.246;2023-02-12T05:04:44;56.73;;;35.93;;
68050;SDS011;54839;51.364;7.246;2023-02-12T05:07:10;57.00;;;34.30;;
68050;SDS011;54839;51.364;7.246;2023-02-12T05:09:36;53.63;;;35.07;;
68050;SDS011;54839;51.364;7.246;2023-02-12T05:12:01;58.17;;;34.70;;
68050;SDS011;54839;51.364;7.246;2023-02-12T05:14:27;53.70;;;35.83;;
68050;SDS011;54839;51.364;7.246;2023-02-12T05:16:53;53.50;;;34.43;;
68050;SDS011;54839;51.364;7.246;2023-02-12T05:19:19;66.30;;;35.90;;
68050;SDS011;54839;51.364;7.246;2023-02-12T05:21:44;61.53;;;36.83;;
68050;SDS011;54839;51.364;7.246;2023-02-12T05:24:10;53.23;;;34.43;;
68050;SDS011;54839;51.364;7.246;2023-02-12T05:26:35;53.00;;;35.47;;
68050;SDS011;54839;51.364;7.246;2023-02-12T05:29:01;60.20;;;37.03;;
68050;SDS011;54839;51.364;7.246;2023-02-12T05:31:27;51.93;;;34.07;;
68050;SDS011;54839;51.364;7.246;2023-02-12T05:33:53;53.77;;;34.67;;
68050;SDS011;54839;51.364;7.246;2023-02-12T05:36:19;59.87;;;37.70;;
68050;SDS011;54839;51.364;7.246;2023-02-12T05:38:47;60.07;;;35.60;;
68050;SDS011;54839;51.364;7.246;2023-02-12T05:41:14;59.30;;;36.60;;
68050;SDS011;54839;51.364;7.246;2023-02-12T05:43:42;52.20;;;32.10;;
68050;SDS011;54839;51.364;7.246;2023-02-12T05:46:08;53.03;;;31.60;;
68050;SDS011;54839;51.364;7.246;2023-02-12T05:48:34;57.70;;;34.97;;
68050;SDS011;54839;51.364;7.246;2023-02-12T05:51:05;53.20;;;34.10;;
68050;SDS011;54839;51.364;7.246;2023-02-12T05:53:32;59.80;;;35.70;;
68050;SDS011;54839;51.364;7.246;2023-02-12T05:58:40;59.87;;;37.90;;
68050;SDS011;54839;51.364;7.246;2023-02-12T06:03:40;53.70;;;34.10;;
68050;SDS011;54839;51.364;7.246;2023-02-12T06:06:05;60.87;;;37.60;;
68050;SDS011;54839;51.364;7.246;2023-02-12T06:08:31;56.20;;;36.20;;
68050;SDS011;54839;51.364;7.246;2023-02-12T06:11:04;52.47;;;33.43;;
68050;SDS011;54839;51.364;7.246;2023-02-12T06:13:31;60.10;;;36.90;;
68050;SDS011;54839;51.364;7.246;2023-02-12T06:15:57;52.53;;;35.87;;
68050;SDS011;54839;51.364;7.246;2023-02-12T06:18:23;63.07;;;34.70;;
68050;SDS011;54839;51.364;7.246;2023-02-12T06:20:49;60.13;;;36.10;;
68050;SDS011;54839;51.364;7.246;2023-02-12T06:23:14;55.67;;;36.80;;
68050;SDS011;54839;51.364;7.246;2023-02-12T06:25:40;63.43;;;38.87;;
68050;SDS011;54839;51.364;7.246;2023-02-12T06:28:06;66.77;;;38.87;;
68050;SDS011;54839;51.364;7.246;2023-02-12T06:30:34;60.87;;;36.50;;
68050;SDS011;54839;51.364;7.246;2023-02-12T06:33:00;60.00;;;36.47;;
68050;SDS011;54839;51.364;7.246;2023-02-12T06:35:26;56.90;;;36.80;;
68050;SDS011;54839;51.364;7.246;2023-02-12T06:37:52;55.83;;;35.47;;
68050;SDS011;54839;51.364;7.246;2023-02-12T06:40:17;56.30;;;34.47;;
68050;SDS011;54839;51.364;7.246;2023-02-12T06:42:43;54.63;;;34.40;;
68050;SDS011;54839;51.364;7.246;2023-02-12T06:45:09;51.87;;;34.13;;
68050;SDS011;54839;51.364;7.246;2023-02-12T06:47:35;50.87;;;34.03;;
68050;SDS011;54839;51.364;7.246;2023-02-12T06:50:00;58.47;;;34.00;;
68050;SDS011;54839;51.364;7.246;2023-02-12T06:52:26;57.67;;;34.90;;
68050;SDS011;54839;51.364;7.246;2023-02-12T06:54:51;60.40;;;36.60;;
68050;SDS011;54839;51.364;7.246;2023-02-12T06:57:17;63.17;;;38.60;;
68050;SDS011;54839;51.364;7.246;2023-02-12T06:59:43;59.00;;;36.77;;
68050;SDS011;54839;51.364;7.246;2023-02-12T07:02:09;62.13;;;38.23;;
68050;SDS011;54839;51.364;7.246;2023-02-12T07:04:36;54.97;;;36.40;;
68050;SDS011;54839;51.364;7.246;2023-02-12T07:07:02;50.90;;;32.63;;
68050;SDS011;54839;51.364;7.246;2023-02-12T07:09:29;54.60;;;35.60;;
68050;SDS011;54839;51.364;7.246;2023-02-12T07:11:56;59.43;;;37.00;;
68050;SDS011;54839;51.364;7.246;2023-02-12T07:14:22;56.00;;;35.77;;
68050;SDS011;54839;51.364;7.246;2023-02-12T07:16:48;56.50;;;37.00;;
68050;SDS011;54839;51.364;7.246;2023-02-12T07:19:14;59.83;;;38.40;;
68050;SDS011;54839;51.364;7.246;2023-02-12T07:21:40;63.67;;;37.53;;
68050;SDS011;54839;51.364;7.246;2023-02-12T07:24:06;60.00;;;37.47;;
68050;SDS011;54839;51.364;7.246;2023-02-12T07:26:32;58.20;;;35.63;;
68050;SDS011;54839;51.364;7.246;2023-02-12T07:28:58;54.23;;;35.67;;
68050;SDS011;54839;51.364;7.246;2023-02-12T07:31:24;61.07;;;38.17;;
68050;SDS011;54839;51.364;7.246;2023-02-12T07:33:53;63.10;;;36.50;;
68050;SDS011;54839;51.364;7.246;2023-02-12T07:36:19;58.43;;;38.60;;
68050;SDS011;54839;51.364;7.246;2023-02-12T07:38:45;69.13;;;36.77;;
68050;SDS011;54839;51.364;7.246;2023-02-12T07:41:13;55.23;;;36.70;;
68050;SDS011;54839;51.364;7.246;2023-02-12T07:43:40;60.27;;;39.30;;
68050;SDS011;54839;51.364;7.246;2023-02-12T07:46:12;59.83;;;37.33;;
68050;SDS011;54839;51.364;7.246;2023-02-12T07:48:40;54.20;;;34.83;;
68050;SDS011;54839;51.364;7.246;2023-02-12T07:51:07;55.87;;;36.70;;
68050;SDS011;54839;51.364;7.246;2023-02-12T07:53:35;55.57;;;34.67;;
68050;SDS011;54839;51.364;7.246;2023-02-12T07:56:11;58.63;;;37.07;;
68050;SDS011;54839;51.364;7.246;2023-02-12T07:58:41;53.13;;;35.57;;
68050;SDS011;54839;51.364;7.246;2023-02-12T08:01:15;49.50;;;33.93;;
68050;SDS011;54839;51.364;7.246;2023-02-12T08:03:45;48.77;;;33.03;;
68050;SDS011;54839;51.364;7.246;2023-02-12T08:06:22;55.13;;;36.17;;
68050;SDS011;54839;51.364;7.246;2023-02-12T08:08:50;50.47;;;33.90;;
68050;SDS011;54839;51.364;7.246;2023-02-12T08:11:17;51.30;;;34.73;;
68050;SDS011;54839;51.364;7.246;2023-02-12T08:13:43;55.50;;;35.67;;
68050;SDS011;54839;51.364;7.246;2023-02-12T08:16:11;51.00;;;32.93;;
68050;SDS011;54839;51.364;7.246;2023-02-12T08:18:39;51.77;;;35.83;;
68050;SDS011;54839;51.364;7.246;2023-02-12T08:21:05;53.57;;;36.37;;
68050;SDS011;54839;51.364;7.246;2023-02-12T08:23:32;51.90;;;35.03;;
68050;SDS011;54839;51.364;7.246;2023-02-12T08:26:05;49.57;;;32.97;;
68050;SDS011;54839;51.364;7.246;2023-02-12T08:28:32;46.53;;;31.70;;
68050;SDS011;54839;51.364;7.246;2023-02-12T08:31:02;50.17;;;32.27;;
68050;SDS011;54839;51.364;7.246;2023-02-12T08:33:29;46.73;;;32.73;;
68050;SDS011;54839;51.364;7.246;2023-02-12T08:38:35;54.10;;;32.20;;
68050;SDS011;54839;51.364;7.246;2023-02-12T08:41:02;46.80;;;31.87;;
68050;SDS011;54839;51.364;7.246;2023-02-12T08:43:29;43.90;;;32.40;;
68050;SDS011;54839;51.364;7.246;2023-02-12T08:45:59;47.00;;;30.37;;
68050;SDS011;54839;51.364;7.246;2023-02-12T08:48:29;47.93;;;32.53;;
68050;SDS011;54839;51.364;7.246;2023-02-12T08:50:56;40.60;;;30.37;;
68050;SDS011;54839;51.364;7.246;2023-02-12T08:53:30;46.90;;;28.40;;
68050;SDS011;54839;51.364;7.246;2023-02-12T08:55:56;42.10;;;29.00;;
68050;SDS011;54839;51.364;7.246;2023-02-12T08:58:21;47.43;;;29.53;;
68050;SDS011;54839;51.364;7.246;2023-02-12T09:00:47;40.97;;;28.33;;
68050;SDS011;54839;51.364;7.246;2023-02-12T09:03:12;40.80;;;30.37;;
68050;SDS011;54839;51.364;7.246;2023-02-12T09:05:41;33.07;;;23.33;;
68050;SDS011;54839;51.364;7.246;2023-02-12T09:08:06;38.07;;;26.83;;
68050;SDS011;54839;51.364;7.246;2023-02-12T09:10:33;34.50;;;25.83;;
68050;SDS011;54839;51.364;7.246;2023-02-12T09:13:02;44.93;;;25.60;;
68050;SDS011;54839;51.364;7.246;2023-02-12T09:15:27;40.37;;;27.00;;
68050;SDS011;54839;51.364;7.246;2023-02-12T09:17:53;31.70;;;22.70;;
68050;SDS011;54839;51.364;7.246;2023-02-12T09:20:18;32.43;;;25.10;;
68050;SDS011;54839;51.364;7.246;2023-02-12T09:22:44;39.13;;;27.07;;
68050;SDS011;54839;51.364;7.246;2023-02-12T09:25:09;35.97;;;26.70;;
68050;SDS011;54839;51.364;7.246;2023-02-12T09:27:35;45.40;;;28.70;;
68050;SDS011;54839;51.364;7.246;2023-02-12T09:30:00;41.37;;;28.40;;
68050;SDS011;54839;51.364;7.246;2023-02-12T09:32:26;46.67;;;30.07;;
68050;SDS011;54839;51.364;7.246;2023-02-12T09:34:51;45.67;;;28.77;;
68050;SDS011;54839;51.364;7.246;2023-02-12T09:37:17;43.40;;;31.53;;
68050;SDS011;54839;51.364;7.246;2023-02-12T09:39:42;41.00;;;28.70;;
68050;SDS011;54839;51.364;7.246;2023-02-12T09:45:04;40.97;;;27.10;;
68050;SDS011;54839;51.364;7.246;2023-02-12T09:47:51;42.57;;;26.07;;
68050;SDS011;54839;51.364;7.246;2023-02-12T09:53:11;35.17;;;23.70;;
68050;SDS011;54839;51.364;7.246;2023-02-12T09:55:40;37.03;;;22.70;;
68050;SDS011;54839;51.364;7.246;2023-02-12T09:58:09;29.30;;;21.83;;
68050;SDS011;54839;51.364;7.246;2023-02-12T10:00:40;41.20;;;23.87;;
68050;SDS011;54839;51.364;7.246;2023-02-12T10:03:10;33.73;;;22.17;;
68050;SDS011;54839;51.364;7.246;2023-02-12T10:05:44;30.20;;;21.90;;
68050;SDS011;54839;51.364;7.246;2023-02-12T10:14:09;35.50;;;24.87;;
68050;SDS011;54839;51.364;7.246;2023-02-12T10:16:53;36.40;;;26.23;;
68050;SDS011;54839;51.364;7.246;2023-02-12T10:22:40;30.90;;;21.60;;
68050;SDS011;54839;51.364;7.246;2023-02-12T10:25:26;35.07;;;24.87;;
68050;SDS011;54839;51.364;7.246;2023-02-12T10:28:16;32.80;;;23.67;;
68050;SDS011;54839;51.364;7.246;2023-02-12T10:36:08;31.60;;;22.70;;
68050;SDS011;54839;51.364;7.246;2023-02-12T10:38:38;30.50;;;22.27;;
68050;SDS011;54839;51.364;7.246;2023-02-12T10:41:11;32.43;;;23.00;;
68050;SDS011;54839;51.364;7.246;2023-02-12T10:43:39;29.97;;;20.93;;
68050;SDS011;54839;51.364;7.246;2023-02-12T10:46:05;34.23;;;26.17;;
68050;SDS011;54839;51.364;7.246;2023-02-12T10:48:32;23.97;;;19.57;;
68050;SDS011;54839;51.364;7.246;2023-02-12T10:53:34;33.93;;;23.37;;
68050;SDS011;54839;51.364;7.246;2023-02-12T10:58:36;35.30;;;25.20;;
68050;SDS011;54839;51.364;7.246;2023-02-12T11:01:04;37.13;;;25.10;;
68050;SDS011;54839;51.364;7.246;2023-02-12T11:03:40;40.63;;;24.40;;
68050;SDS011;54839;51.364;7.246;2023-02-12T11:08:42;35.80;;;25.80;;
68050;SDS011;54839;51.364;7.246;2023-02-12T11:11:12;41.43;;;28.30;;
68050;SDS011;54839;51.364;7.246;2023-02-12T11:16:40;28.70;;;23.30;;
68050;SDS011;54839;51.364;7.246;2023-02-12T11:19:29;34.80;;;24.67;;
68050;SDS011;54839;51.364;7.246;2023-02-12T11:22:12;39.37;;;25.07;;
68050;SDS011;54839;51.364;7.246;2023-02-12T11:24:42;36.50;;;25.03;;
68050;SDS011;54839;51.364;7.246;2023-02-12T11:29:43;31.63;;;22.53;;
68050;SDS011;54839;51.364;7.246;2023-02-12T11:32:17;38.27;;;25.33;;
68050;SDS011;54839;51.364;7.246;2023-02-12T11:34:48;42.10;;;25.40;;
68050;SDS011;54839;51.364;7.246;2023-02-12T11:37:31;40.90;;;24.53;;
68050;SDS011;54839;51.364;7.246;2023-02-12T11:40:00;42.10;;;26.47;;
68050;SDS011;54839;51.364;7.246;2023-02-12T11:42:26;34.17;;;23.17;;
68050;SDS011;54839;51.364;7.246;2023-02-12T11:44:56;37.13;;;26.13;;
68050;SDS011;54839;51.364;7.246;2023-02-12T11:47:24;40.23;;;26.00;;
68050;SDS011;54839;51.364;7.246;2023-02-12T11:52:52;35.17;;;25.63;;
68050;SDS011;54839;51.364;7.246;2023-02-12T11:55:26;39.40;;;28.23;;
68050;SDS011;54839;51.364;7.246;2023-02-12T11:57:54;40.57;;;26.20;;
68050;SDS011;54839;51.364;7.246;2023-02-12T12:00:37;35.63;;;25.33;;
68050;SDS011;54839;51.364;7.246;2023-02-12T12:05:48;40.67;;;30.90;;
68050;SDS011;54839;51.364;7.246;2023-02-12T12:08:26;51.90;;;27.83;;
68050;SDS011;54839;51.364;7.246;2023-02-12T12:10:59;43.10;;;28.80;;
68050;SDS011;54839;51.364;7.246;2023-02-12T12:13:28;42.53;;;28.80;;
68050;SDS011;54839;51.364;7.246;2023-02-12T12:16:15;45.73;;;28.00;;
68050;SDS011;54839;51.364;7.246;2023-02-12T12:19:27;51.73;;;27.80;;
68050;SDS011;54839;51.364;7.246;2023-02-12T12:22:22;38.07;;;27.17;;
68050;SDS011;54839;51.364;7.246;2023-02-12T12:25:12;36.40;;;25.57;;
68050;SDS011;54839;51.364;7.246;2023-02-12T12:33:41;45.63;;;30.33;;
68050;SDS011;54839;51.364;7.246;2023-02-12T12:44:11;41.83;;;29.87;;
68050;SDS011;54839;51.364;7.246;2023-02-12T12:49:47;47.80;;;32.77;;
68050;SDS011;54839;51.364;7.246;2023-02-12T12:52:48;41.43;;;27.90;;
68050;SDS011;54839;51.364;7.246;2023-02-12T12:55:40;42.53;;;29.10;;
68050;SDS011;54839;51.364;7.246;2023-02-12T13:03:57;41.00;;;29.17;;
68050;SDS011;54839;51.364;7.246;2023-02-12T13:06:40;39.90;;;26.63;;
68050;SDS011;54839;51.364;7.246;2023-02-12T13:23:27;41.63;;;28.90;;
68050;SDS011;54839;51.364;7.246;2023-02-12T13:26:05;47.90;;;29.20;;
68050;SDS011;54839;51.364;7.246;2023-02-12T13:28:37;36.70;;;26.00;;
68050;SDS011;54839;51.364;7.246;2023-02-12T13:31:07;36.33;;;26.60;;
68050;SDS011;54839;51.364;7.246;2023-02-12T13:33:44;39.43;;;28.13;;
68050;SDS011;54839;51.364;7.246;2023-02-12T13:36:15;51.77;;;31.77;;
68050;SDS011;54839;51.364;7.246;2023-02-12T13:38:43;41.63;;;26.93;;
68050;SDS011;54839;51.364;7.246;2023-02-12T13:41:14;40.47;;;28.73;;
68050;SDS011;54839;51.364;7.246;2023-02-12T13:43:49;42.87;;;27.57;;
68050;SDS011;54839;51.364;7.246;2023-02-12T13:56:49;40.30;;;28.30;;
68050;SDS011;54839;51.364;7.246;2023-02-12T14:04:54;44.27;;;29.93;;
68050;SDS011;54839;51.364;7.246;2023-02-12T14:07:23;42.20;;;26.47;;
68050;SDS011;54839;51.364;7.246;2023-02-12T14:10:04;49.73;;;28.13;;
68050;SDS011;54839;51.364;7.246;2023-02-12T14:12:31;43.27;;;27.43;;
68050;SDS011;54839;51.364;7.246;2023-02-12T14:17:54;38.93;;;23.30;;
68050;SDS011;54839;51.364;7.246;2023-02-12T14:20:30;39.00;;;22.90;;
68050;SDS011;54839;51.364;7.246;2023-02-12T14:23:02;42.67;;;24.20;;
68050;SDS011;54839;51.364;7.246;2023-02-12T14:33:43;32.00;;;23.57;;
68050;SDS011;54839;51.364;7.246;2023-02-12T14:36:21;27.60;;;21.17;;
68050;SDS011;54839;51.364;7.246;2023-02-12T14:41:43;29.97;;;20.80;;
68050;SDS011;54839;51.364;7.246;2023-02-12T14:46:46;27.10;;;19.03;;
68050;SDS011;54839;51.364;7.246;2023-02-12T14:49:20;25.97;;;18.57;;
68050;SDS011;54839;51.364;7.246;2023-02-12T14:52:03;27.40;;;19.20;;
68050;SDS011;54839;51.364;7.246;2023-02-12T14:54:49;26.97;;;18.93;;
68050;SDS011;54839;51.364;7.246;2023-02-12T15:02:47;25.10;;;17.97;;
68050;SDS011;54839;51.364;7.246;2023-02-12T15:05:22;31.97;;;17.70;;
68050;SDS011;54839;51.364;7.246;2023-02-12T15:07:52;23.30;;;15.90;;
68050;SDS011;54839;51.364;7.246;2023-02-12T15:10:23;27.60;;;17.30;;
68050;SDS011;54839;51.364;7.246;2023-02-12T15:16:12;23.43;;;17.10;;
68050;SDS011;54839;51.364;7.246;2023-02-12T15:19:15;23.20;;;17.73;;
68050;SDS011;54839;51.364;7.246;2023-02-12T15:21:52;21.63;;;16.70;;
68050;SDS011;54839;51.364;7.246;2023-02-12T15:24:22;20.60;;;16.77;;
68050;SDS011;54839;51.364;7.246;2023-02-12T15:26:49;20.20;;;17.03;;
68050;SDS011;54839;51.364;7.246;2023-02-12T15:29:18;24.73;;;17.37;;
68050;SDS011;54839;51.364;7.246;2023-02-12T15:31:55;24.40;;;17.87;;
68050;SDS011;54839;51.364;7.246;2023-02-12T15:34:24;26.87;;;19.27;;
68050;SDS011;54839;51.364;7.246;2023-02-12T15:36:53;24.03;;;17.60;;
68050;SDS011;54839;51.364;7.246;2023-02-12T15:39:21;25.67;;;19.67;;
68050;SDS011;54839;51.364;7.246;2023-02-12T15:41:48;33.37;;;21.80;;
68050;SDS011;54839;51.364;7.246;2023-02-12T15:49:40;32.27;;;22.30;;
68050;SDS011;54839;51.364;7.246;2023-02-12T15:52:08;28.43;;;21.30;;
68050;SDS011;54839;51.364;7.246;2023-02-12T15:54:39;32.13;;;22.10;;
68050;SDS011;54839;51.364;7.246;2023-02-12T15:57:08;32.47;;;22.67;;
68050;SDS011;54839;51.364;7.246;2023-02-12T15:59:36;28.47;;;21.40;;
68050;SDS011;54839;51.364;7.246;2023-02-12T16:02:02;33.50;;;22.30;;
68050;SDS011;54839;51.364;7.246;2023-02-12T16:04:29;34.53;;;21.97;;
68050;SDS011;54839;51.364;7.246;2023-02-12T16:06:58;31.00;;;23.23;;
68050;SDS011;54839;51.364;7.246;2023-02-12T16:09:31;41.00;;;22.67;;
68050;SDS011;54839;51.364;7.246;2023-02-12T16:12:00;30.90;;;23.13;;
68050;SDS011;54839;51.364;7.246;2023-02-12T16:14:41;39.70;;;29.13;;
68050;SDS011;54839;51.364;7.246;2023-02-12T16:17:20;29.07;;;21.97;;
68050;SDS011;54839;51.364;7.246;2023-02-12T16:20:01;36.37;;;22.90;;
68050;SDS011;54839;51.364;7.246;2023-02-12T16:22:44;26.37;;;21.40;;
68050;SDS011;54839;51.364;7.246;2023-02-12T16:25:19;29.47;;;22.60;;
68050;SDS011;54839;51.364;7.246;2023-02-12T16:30:28;31.80;;;24.07;;
68050;SDS011;54839;51.364;7.246;2023-02-12T16:36:02;34.30;;;23.77;;
68050;SDS011;54839;51.364;7.246;2023-02-12T16:38:43;29.57;;;21.90;;
68050;SDS011;54839;51.364;7.246;2023-02-12T16:43:37;32.57;;;24.80;;
68050;SDS011;54839;51.364;7.246;2023-02-12T16:46:04;31.47;;;24.00;;
68050;SDS011;54839;51.364;7.246;2023-02-12T16:48:30;34.87;;;25.00;;
68050;SDS011;54839;51.364;7.246;2023-02-12T16:51:05;38.67;;;22.53;;
68050;SDS011;54839;51.364;7.246;2023-02-12T16:53:45;32.33;;;24.47;;
68050;SDS011;54839;51.364;7.246;2023-02-12T16:56:13;37.33;;;25.70;;
68050;SDS011;54839;51.364;7.246;2023-02-12T16:58:42;35.60;;;24.07;;
68050;SDS011;54839;51.364;7.246;2023-02-12T17:01:16;35.13;;;26.77;;
68050;SDS011;54839;51.364;7.246;2023-02-12T17:03:44;41.53;;;26.83;;
68050;SDS011;54839;51.364;7.246;2023-02-12T17:06:11;35.37;;;27.63;;
68050;SDS011;54839;51.364;7.246;2023-02-12T17:08:37;39.63;;;28.63;;
68050;SDS011;54839;51.364;7.246;2023-02-12T17:11:03;38.10;;;28.47;;
68050;SDS011;54839;51.364;7.246;2023-02-12T17:13:29;35.83;;;26.13;;
68050;SDS011;54839;51.364;7.246;2023-02-12T17:15:55;40.70;;;28.27;;
68050;SDS011;54839;51.364;7.246;2023-02-12T17:18:22;35.20;;;26.77;;
68050;SDS011;54839;51.364;7.246;2023-02-12T17:20:53;40.53;;;26.60;;